Time;durP1;ratioP1;P1;durP2;ratioP2;P2;SDS_P1;SDS_P2;PMS_P1;PMS_P2;Temp;Humidity;BMP_temperature;BMP_pressure;BME280_temperature;BME280_humidity;BME280_pressure;Samples;Min_cycle;Max_cycle;Signal;HPM_P1;HPM_P2
2021/10/06 00:00:14;;;;;;;3.75;1.30;;;15.10;86.90;;;;;;5084329;28;20081;-71
2021/10/06 00:02:41;;;;;;;3.78;1.35;;;15.10;86.90;;;;;;5079346;28;20124;-71
2021/10/06 00:05:07;;;;;;;2.28;1.20;;;15.10;87.00;;;;;;5081000;28;20083;-71
2021/10/06 00:07:33;;;;;;;1.95;1.05;;;15.10;87.60;;;;;;5078392;28;20482;-71
2021/10/06 00:09:59;;;;;;;4.47;1.20;;;15.10;87.20;;;;;;5090131;28;20028;-71
2021/10/06 00:12:24;;;;;;;3.03;0.95;;;14.90;87.30;;;;;;5079869;28;20482;-71
2021/10/06 00:14:50;;;;;;;3.58;1.65;;;15.00;87.60;;;;;;5081336;28;20476;-71
2021/10/06 00:17:15;;;;;;;3.63;1.38;;;14.90;87.80;;;;;;5088603;28;20028;-71
2021/10/06 00:19:41;;;;;;;7.57;1.45;;;14.90;87.90;;;;;;5083287;28;20036;-71
2021/10/06 00:22:07;;;;;;;5.97;1.65;;;14.90;87.90;;;;;;5086773;28;20123;-71
2021/10/06 00:24:32;;;;;;;3.20;1.02;;;14.90;88.00;;;;;;5086874;28;20082;-71
2021/10/06 00:26:58;;;;;;;1.70;1.00;;;14.90;87.90;;;;;;5078197;28;20028;-71
2021/10/06 00:29:23;;;;;;;9.35;1.63;;;14.90;87.80;;;;;;5073120;28;20020;-71
2021/10/06 00:31:49;;;;;;;1.15;0.88;;;14.90;87.80;;;;;;5086175;28;20039;-71
2021/10/06 00:34:15;;;;;;;5.55;1.42;;;14.90;87.70;;;;;;5090548;28;20058;-71
2021/10/06 00:36:41;;;;;;;2.10;1.20;;;14.90;87.70;;;;;;5087644;28;20046;-71
2021/10/06 00:39:07;;;;;;;2.65;1.67;;;14.90;87.70;;;;;;5088570;28;20032;-71
2021/10/06 00:41:33;;;;;;;3.85;1.63;;;14.90;87.80;;;;;;5082858;28;20020;-71
2021/10/06 00:43:59;;;;;;;2.55;1.40;;;14.90;87.60;;;;;;5081913;28;20040;-71
2021/10/06 00:46:24;;;;;;;3.65;0.85;;;14.80;87.50;;;;;;5074599;28;20070;-71
2021/10/06 00:48:50;;;;;;;3.80;1.83;;;14.90;87.60;;;;;;5084067;28;20028;-71
2021/10/06 00:51:17;;;;;;;3.63;1.77;;;14.80;87.60;;;;;;5075569;28;20032;-71
2021/10/06 00:53:42;;;;;;;3.15;1.20;;;14.90;87.60;;;;;;5077218;28;20028;-71
2021/10/06 00:56:08;;;;;;;1.95;0.85;;;14.80;87.40;;;;;;5073922;28;20490;-71
2021/10/06 00:58:34;;;;;;;5.88;1.70;;;14.90;87.40;;;;;;5085915;28;20028;-71
2021/10/06 01:01:02;;;;;;;1.55;0.98;;;14.80;87.40;;;;;;5090927;28;20035;-71
2021/10/06 01:03:28;;;;;;;2.08;0.82;;;14.80;87.40;;;;;;5078852;28;20044;-71
2021/10/06 01:05:54;;;;;;;4.55;1.33;;;14.80;87.30;;;;;;5085537;28;20025;-71
2021/10/06 01:08:20;;;;;;;8.93;2.60;;;14.80;87.30;;;;;;5081759;28;20035;-71
2021/10/06 01:10:46;;;;;;;12.88;1.20;;;14.70;87.40;;;;;;5090404;28;20024;-71
2021/10/06 01:13:15;;;;;;;4.25;1.95;;;14.70;87.30;;;;;;5078072;28;20028;-71
2021/10/06 01:15:43;;;;;;;3.28;1.70;;;14.80;87.40;;;;;;5073818;28;20085;-71
2021/10/06 01:18:09;;;;;;;3.08;1.60;;;14.70;87.30;;;;;;5085284;28;20050;-71
2021/10/06 01:20:34;;;;;;;6.50;1.92;;;14.70;87.20;;;;;;5080791;28;20617;-71
2021/10/06 01:23:00;;;;;;;8.05;2.10;;;14.80;87.20;;;;;;5091737;28;20065;-71
2021/10/06 01:25:26;;;;;;;3.88;1.42;;;14.70;87.20;;;;;;5081570;28;20101;-71
2021/10/06 01:27:52;;;;;;;5.20;1.95;;;14.70;87.10;;;;;;5079253;28;20464;-71
2021/10/06 01:30:17;;;;;;;3.00;1.55;;;14.70;87.20;;;;;;5075324;28;20031;-72
2021/10/06 01:32:45;;;;;;;4.75;1.77;;;14.70;87.20;;;;;;5076680;28;20448;-71
2021/10/06 01:35:13;;;;;;;2.95;1.50;;;14.70;87.80;;;;;;5083617;28;20028;-71
2021/10/06 01:37:39;;;;;;;1.02;0.88;;;14.60;87.10;;;;;;5080658;28;20476;-71
2021/10/06 01:40:09;;;;;;;4.88;1.30;;;14.60;87.00;;;;;;5088325;28;20080;-71
2021/10/06 01:42:35;;;;;;;1.95;1.10;;;14.60;87.10;;;;;;5079946;28;20031;-71
2021/10/06 01:45:00;;;;;;;4.60;1.52;;;14.50;87.10;;;;;;5087140;28;20044;-72
2021/10/06 01:47:27;;;;;;;2.15;0.85;;;14.50;87.30;;;;;;5080097;28;20024;-72
2021/10/06 01:49:54;;;;;;;3.33;1.30;;;14.50;87.30;;;;;;5085823;28;20479;-71
2021/10/06 01:52:22;;;;;;;1.30;0.82;;;14.50;87.30;;;;;;5077172;28;20013;-71
2021/10/06 01:54:50;;;;;;;3.70;0.93;;;14.50;87.40;;;;;;5080361;28;20026;-71
2021/10/06 01:57:16;;;;;;;2.42;1.20;;;14.40;87.30;;;;;;5079400;28;20067;-71
2021/10/06 01:59:45;;;;;;;0.60;0.60;;;14.40;87.40;;;;;;5081755;28;20594;-71
2021/10/06 02:02:10;;;;;;;3.22;1.30;;;14.40;87.40;;;;;;5080059;28;20393;-71
2021/10/06 02:04:37;;;;;;;1.95;0.85;;;14.40;87.60;;;;;;5087420;28;20039;-71
2021/10/06 02:07:03;;;;;;;1.55;1.08;;;14.40;87.50;;;;;;5075404;28;20550;-71
2021/10/06 02:09:29;;;;;;;1.25;0.70;;;14.40;87.50;;;;;;5078310;28;20029;-71
2021/10/06 02:11:54;;;;;;;2.67;1.33;;;14.40;87.50;;;;;;5077328;28;20115;-71
2021/10/06 02:14:20;;;;;;;2.05;0.70;;;14.30;87.50;;;;;;5087955;28;20111;-71
2021/10/06 02:16:46;;;;;;;8.23;1.63;;;14.30;87.50;;;;;;5080154;28;20024;-71
2021/10/06 02:19:12;;;;;;;1.00;0.77;;;14.30;87.60;;;;;;5089758;28;20119;-71
2021/10/06 02:21:38;;;;;;;2.17;1.02;;;14.30;87.60;;;;;;5091728;28;20024;-72
2021/10/06 02:24:04;;;;;;;1.00;0.73;;;14.30;87.60;;;;;;5075655;28;20041;-71
2021/10/06 02:26:31;;;;;;;3.63;1.52;;;14.30;87.60;;;;;;5076405;28;20025;-71
2021/10/06 02:28:57;;;;;;;1.55;1.15;;;14.30;87.60;;;;;;5082398;28;20130;-71
2021/10/06 02:31:22;;;;;;;3.83;1.30;;;14.30;87.70;;;;;;5082890;28;20166;-71
2021/10/06 02:33:48;;;;;;;3.10;1.45;;;14.30;87.70;;;;;;5092182;28;20065;-71
2021/10/06 02:36:14;;;;;;;2.47;1.17;;;14.20;87.70;;;;;;5079963;28;20531;-71
2021/10/06 02:38:40;;;;;;;0.50;0.50;;;14.30;87.60;;;;;;5088731;28;20170;-71
2021/10/06 02:41:05;;;;;;;2.75;1.48;;;14.20;87.50;;;;;;5086942;28;20123;-71
2021/10/06 02:43:31;;;;;;;1.10;0.90;;;14.30;87.60;;;;;;5075246;28;20392;-72
2021/10/06 02:45:57;;;;;;;4.63;1.15;;;14.20;87.50;;;;;;5076007;28;20411;-71
2021/10/06 02:48:23;;;;;;;2.63;1.67;;;14.30;87.60;;;;;;5077909;28;20032;-71
2021/10/06 02:50:50;;;;;;;3.75;1.45;;;14.30;87.60;;;;;;5077831;28;20190;-72
2021/10/06 02:53:16;;;;;;;4.75;1.75;;;14.20;88.20;;;;;;5083875;28;20414;-71
2021/10/06 02:55:42;;;;;;;4.53;1.77;;;14.30;87.70;;;;;;5082556;28;20023;-71
2021/10/06 02:58:08;;;;;;;5.60;1.73;;;14.20;87.70;;;;;;5087254;28;20115;-71
2021/10/06 03:00:33;;;;;;;5.43;1.55;;;14.30;87.80;;;;;;5079847;28;20486;-71
2021/10/06 03:02:59;;;;;;;5.35;1.73;;;14.30;87.80;;;;;;5090180;28;20028;-71
2021/10/06 03:05:25;;;;;;;6.25;2.20;;;14.30;87.80;;;;;;5077789;28;20031;-71
2021/10/06 03:07:51;;;;;;;6.57;1.20;;;14.30;87.90;;;;;;5074787;28;20392;-71
2021/10/06 03:10:16;;;;;;;4.65;1.67;;;14.30;87.70;;;;;;5075608;28;20119;-71
2021/10/06 03:12:42;;;;;;;4.45;2.10;;;14.30;87.70;;;;;;5075976;28;20021;-71
2021/10/06 03:15:09;;;;;;;3.65;1.80;;;14.30;87.70;;;;;;5074587;28;20506;-71
2021/10/06 03:17:35;;;;;;;1.98;1.40;;;14.30;87.80;;;;;;5074175;28;20075;-72
2021/10/06 03:20:01;;;;;;;6.20;1.33;;;14.30;87.60;;;;;;5087854;28;20052;-71
2021/10/06 03:22:27;;;;;;;5.35;2.30;;;14.40;87.60;;;;;;5082042;28;20024;-71
2021/10/06 03:24:53;;;;;;;3.72;2.20;;;14.30;87.60;;;;;;5075025;28;20043;-72
2021/10/06 03:27:18;;;;;;;2.08;1.63;;;14.30;87.80;;;;;;5092908;28;20388;-72
2021/10/06 03:29:44;;;;;;;6.13;1.98;;;14.40;87.60;;;;;;5079342;28;20380;-72
2021/10/06 03:32:11;;;;;;;1.77;1.15;;;14.30;87.60;;;;;;5079803;28;20024;-71
2021/10/06 03:34:36;;;;;;;4.18;2.03;;;14.40;87.60;;;;;;5086458;28;20032;-72
2021/10/06 03:37:02;;;;;;;3.55;2.00;;;14.40;87.50;;;;;;5091902;28;20393;-71
2021/10/06 03:39:28;;;;;;;6.38;2.45;;;14.40;87.50;;;;;;5084824;28;20058;-72
2021/10/06 03:41:55;;;;;;;8.02;2.08;;;14.40;87.60;;;;;;5085587;28;20051;-72
2021/10/06 03:44:21;;;;;;;1.80;1.33;;;14.40;88.20;;;;;;5079567;28;20131;-71
2021/10/06 03:46:46;;;;;;;5.15;2.58;;;14.40;87.30;;;;;;5090266;28;20046;-72
2021/10/06 03:49:12;;;;;;;4.80;2.13;;;14.50;87.40;;;;;;5086517;28;20390;-72
2021/10/06 03:51:38;;;;;;;5.00;1.88;;;14.40;87.20;;;;;;5086474;28;20078;-72
2021/10/06 03:54:03;;;;;;;4.13;2.50;;;14.50;87.10;;;;;;5085043;28;20034;-71
2021/10/06 03:56:29;;;;;;;8.23;3.05;;;14.50;87.10;;;;;;5076873;28;20094;-71
2021/10/06 03:58:55;;;;;;;4.05;1.88;;;14.40;87.10;;;;;;5086857;28;20027;-72
2021/10/06 04:01:20;;;;;;;4.45;1.95;;;14.40;87.00;;;;;;5082115;28;20028;-71
2021/10/06 04:03:46;;;;;;;6.10;2.35;;;14.40;87.20;;;;;;5092103;28;20035;-71
2021/10/06 04:06:12;;;;;;;8.60;2.65;;;14.40;87.30;;;;;;5084609;28;20021;-71
2021/10/06 04:08:37;;;;;;;4.70;1.88;;;14.40;87.30;;;;;;5075168;28;20024;-71
2021/10/06 04:11:03;;;;;;;7.68;2.55;;;14.40;87.30;;;;;;5078753;28;20039;-71
2021/10/06 04:13:29;;;;;;;5.35;2.55;;;14.40;87.30;;;;;;5083970;28;20475;-72
2021/10/06 04:15:54;;;;;;;4.07;2.92;;;14.40;87.40;;;;;;5072879;28;20080;-71
2021/10/06 04:18:20;;;;;;;7.25;2.08;;;14.40;87.40;;;;;;5089494;28;20119;-71
2021/10/06 04:20:46;;;;;;;4.18;2.70;;;14.50;87.30;;;;;;5090903;28;20032;-71
2021/10/06 04:23:12;;;;;;;7.35;3.53;;;14.50;87.30;;;;;;5078705;28;20024;-71
2021/10/06 04:25:41;;;;;;;0.93;0.93;;;14.50;87.40;;;;;;5074976;28;20040;-71
2021/10/06 04:28:07;;;;;;;8.32;2.78;;;14.50;87.20;;;;;;5076011;28;20032;-72
2021/10/06 04:30:33;;;;;;;3.38;1.15;;;14.40;87.10;;;;;;5076337;28;20552;-72
2021/10/06 04:32:58;;;;;;;5.65;2.47;;;14.50;87.00;;;;;;5072662;28;20392;-72
2021/10/06 04:35:25;;;;;;;6.97;1.85;;;14.50;87.10;;;;;;5072799;28;20123;-72
2021/10/06 04:37:51;;;;;;;7.13;2.22;;;14.50;87.00;;;;;;5074846;28;20082;-72
2021/10/06 04:40:17;;;;;;;6.30;1.77;;;14.50;87.10;;;;;;5076356;28;20056;-72
2021/10/06 04:42:44;;;;;;;6.38;1.70;;;14.50;87.20;;;;;;5074311;28;20036;-72
2021/10/06 04:45:10;;;;;;;4.97;2.10;;;14.50;87.10;;;;;;5077607;28;20036;-72
2021/10/06 04:47:36;;;;;;;9.65;1.80;;;14.40;87.00;;;;;;5077672;28;20084;-72
2021/10/06 04:50:02;;;;;;;8.13;2.42;;;14.50;87.00;;;;;;5073527;28;20449;-72
2021/10/06 04:52:34;;;;;;;5.97;2.42;;;14.50;87.20;;;;;;5072315;28;21426;-72
2021/10/06 04:55:00;;;;;;;4.75;1.95;;;14.50;87.50;;;;;;5074815;28;20035;-72
2021/10/06 04:57:26;;;;;;;11.88;2.65;;;14.50;87.30;;;;;;5073712;28;20032;-72
2021/10/06 04:59:51;;;;;;;7.95;2.58;;;14.60;87.50;;;;;;5073464;28;20051;-72
2021/10/06 05:02:17;;;;;;;2.70;2.03;;;14.60;87.50;;;;;;5079867;28;20467;-72
2021/10/06 05:04:43;;;;;;;3.80;2.15;;;14.60;87.40;;;;;;5086040;28;20503;-72
2021/10/06 05:07:08;;;;;;;5.75;1.98;;;14.60;87.20;;;;;;5083561;28;20107;-72
2021/10/06 05:09:34;;;;;;;6.50;1.85;;;14.60;86.90;;;;;;5078377;28;20074;-72
2021/10/06 05:12:00;;;;;;;5.43;1.83;;;14.60;86.90;;;;;;5079735;28;20031;-72
2021/10/06 05:14:27;;;;;;;14.00;2.47;;;14.60;87.50;;;;;;5083416;28;20032;-72
2021/10/06 05:16:53;;;;;;;1.13;0.80;;;14.60;86.90;;;;;;5090774;28;20382;-72
2021/10/06 05:19:19;;;;;;;2.28;0.60;;;14.60;86.70;;;;;;5080292;28;20111;-72
2021/10/06 05:21:45;;;;;;;3.15;1.27;;;14.60;86.60;;;;;;5088021;28;20036;-72
2021/10/06 05:24:11;;;;;;;4.80;1.40;;;14.50;86.70;;;;;;5087208;28;20040;-71
2021/10/06 05:26:37;;;;;;;5.50;1.60;;;14.50;86.70;;;;;;5103112;28;20086;-72
2021/10/06 05:29:03;;;;;;;5.97;1.58;;;14.50;86.70;;;;;;5081707;28;20024;-72
2021/10/06 05:31:29;;;;;;;7.05;1.77;;;14.50;86.80;;;;;;5078075;28;20024;-71
2021/10/06 05:33:54;;;;;;;6.38;1.50;;;14.50;86.90;;;;;;5081923;28;20055;-71
2021/10/06 05:36:20;;;;;;;1.95;1.40;;;14.50;86.80;;;;;;5080624;28;20046;-71
2021/10/06 05:38:46;;;;;;;8.20;1.63;;;14.60;87.40;;;;;;5081267;28;20032;-71
2021/10/06 05:41:12;;;;;;;5.53;1.67;;;14.60;86.90;;;;;;5081412;28;20046;-72
2021/10/06 05:43:37;;;;;;;5.30;1.45;;;14.50;86.90;;;;;;5088057;28;20029;-72
2021/10/06 05:46:03;;;;;;;2.55;1.40;;;14.60;86.90;;;;;;5085119;28;20047;-72
2021/10/06 05:48:29;;;;;;;9.02;2.10;;;14.60;86.90;;;;;;5076450;28;20027;-72
2021/10/06 05:50:54;;;;;;;7.63;1.50;;;14.60;86.90;;;;;;5086785;28;20494;-72
2021/10/06 05:53:20;;;;;;;6.07;1.85;;;14.60;86.90;;;;;;5085053;28;20462;-72
2021/10/06 05:55:46;;;;;;;6.30;1.40;;;14.70;86.70;;;;;;5086551;28;20498;-72
2021/10/06 05:58:13;;;;;;;3.33;1.70;;;14.70;86.70;;;;;;5085679;28;20027;-72
2021/10/06 06:00:39;;;;;;;3.13;1.50;;;14.70;86.80;;;;;;5088674;28;20024;-72
2021/10/06 06:03:07;;;;;;;3.05;1.30;;;14.70;86.80;;;;;;5086421;28;20036;-72
2021/10/06 06:05:42;;;;;;;7.45;1.60;;;14.70;86.60;;;;;;5085264;28;20040;-73
2021/10/06 06:08:10;;;;;;;5.05;1.70;;;14.70;86.50;;;;;;5085333;28;20149;-73
2021/10/06 06:10:35;;;;;;;6.28;1.90;;;14.70;86.30;;;;;;5088432;28;20427;-72
2021/10/06 06:13:01;;;;;;;6.78;1.75;;;14.70;86.40;;;;;;5084650;28;20161;-72
2021/10/06 06:15:27;;;;;;;4.00;2.33;;;14.70;86.40;;;;;;5085589;28;20024;-72
2021/10/06 06:17:53;;;;;;;2.40;1.42;;;14.70;86.60;;;;;;5081755;28;20045;-74
2021/10/06 06:20:25;;;;;;;7.40;2.70;;;14.70;86.50;;;;;;5085254;28;20115;-70
2021/10/06 06:22:54;;;;;;;2.30;1.60;;;14.60;86.50;;;;;;5078815;28;20471;-72
2021/10/06 06:25:21;;;;;;;1.13;1.02;;;14.70;86.70;;;;;;5082439;28;20537;-72
2021/10/06 06:27:47;;;;;;;4.45;2.20;;;14.60;86.40;;;;;;5082771;28;20536;-72
2021/10/06 06:30:13;;;;;;;4.43;1.77;;;14.60;86.60;;;;;;5086173;28;20049;-72
2021/10/06 06:32:41;;;;;;;1.85;1.05;;;14.60;86.60;;;;;;5082521;28;20066;-72
2021/10/06 06:35:08;;;;;;;1.90;1.33;;;14.60;86.40;;;;;;5082640;28;20036;-71
2021/10/06 06:37:33;;;;;;;7.00;1.30;;;14.60;86.50;;;;;;5086671;28;20021;-72
2021/10/06 06:39:59;;;;;;;2.65;1.50;;;14.60;86.70;;;;;;5085347;28;20794;-71
2021/10/06 06:42:25;;;;;;;6.65;1.80;;;14.50;86.80;;;;;;5086158;28;20032;-72
2021/10/06 06:44:51;;;;;;;3.67;1.25;;;14.40;86.90;;;;;;5084734;28;20055;-72
2021/10/06 06:47:16;;;;;;;3.22;1.73;;;14.40;86.90;;;;;;5083760;28;20032;-72
2021/10/06 06:49:42;;;;;;;4.78;1.58;;;14.40;87.00;;;;;;5084243;28;20115;-73
2021/10/06 06:52:10;;;;;;;2.58;1.13;;;14.40;87.00;;;;;;5088327;28;20039;-72
2021/10/06 06:54:39;;;;;;;2.95;1.10;;;14.50;87.00;;;;;;5088053;28;20031;-71
2021/10/06 06:57:09;;;;;;;2.72;1.20;;;14.40;87.00;;;;;;5080586;28;20056;-72
2021/10/06 06:59:34;;;;;;;2.55;1.20;;;14.40;87.10;;;;;;5079271;28;20047;-72
2021/10/06 07:02:00;;;;;;;4.63;1.50;;;14.40;87.20;;;;;;5080228;28;20024;-72
2021/10/06 07:04:26;;;;;;;5.78;1.00;;;14.40;87.30;;;;;;5087789;28;20036;-72
2021/10/06 07:06:57;;;;;;;6.40;1.85;;;14.40;87.20;;;;;;5088835;28;20032;-72
2021/10/06 07:09:24;;;;;;;1.60;1.05;;;14.30;87.30;;;;;;5082283;28;20430;-71
2021/10/06 07:11:52;;;;;;;4.68;1.27;;;14.30;87.30;;;;;;5089064;28;20044;-72
2021/10/06 07:14:17;;;;;;;3.80;1.83;;;14.30;87.40;;;;;;5086610;28;20012;-72
2021/10/06 07:16:43;;;;;;;1.75;1.52;;;14.30;87.50;;;;;;5082054;28;20081;-72
2021/10/06 07:19:12;;;;;;;5.53;1.73;;;14.30;87.40;;;;;;5080516;28;20037;-72
2021/10/06 07:21:38;;;;;;;2.15;1.17;;;14.40;87.30;;;;;;5079889;28;20086;-71
2021/10/06 07:24:03;;;;;;;3.55;1.85;;;14.40;87.30;;;;;;5077289;28;20039;-72
2021/10/06 07:26:30;;;;;;;3.53;1.80;;;14.40;87.40;;;;;;5075131;28;20433;-72
2021/10/06 07:28:56;;;;;;;4.50;2.08;;;14.30;87.40;;;;;;5075683;28;20043;-73
2021/10/06 07:31:21;;;;;;;1.58;1.27;;;14.40;87.60;;;;;;5072282;28;20483;-73
2021/10/06 07:33:50;;;;;;;7.45;1.73;;;14.40;87.40;;;;;;5086258;28;20111;-72
2021/10/06 07:36:16;;;;;;;9.02;1.90;;;14.40;87.50;;;;;;5081403;28;20035;-72
2021/10/06 07:38:41;;;;;;;6.32;1.63;;;14.50;87.60;;;;;;5083931;28;20028;-72
2021/10/06 07:41:07;;;;;;;2.25;1.73;;;14.50;87.30;;;;;;5083397;28;20044;-72
2021/10/06 07:43:33;;;;;;;6.63;2.50;;;14.50;87.20;;;;;;5085456;28;20044;-72
2021/10/06 07:45:59;;;;;;;2.75;1.67;;;14.50;87.10;;;;;;5080175;28;20104;-72
2021/10/06 07:48:30;;;;;;;4.80;1.83;;;14.60;87.10;;;;;;5084581;28;20082;-73
2021/10/06 07:50:57;;;;;;;3.92;1.85;;;14.60;87.00;;;;;;5090460;28;20085;-72
2021/10/06 07:53:23;;;;;;;4.32;1.90;;;14.60;87.00;;;;;;5073116;28;20436;-72
2021/10/06 07:55:58;;;;;;;2.25;1.35;;;14.70;86.90;;;;;;5073347;28;20050;-72
2021/10/06 07:58:23;;;;;;;6.75;1.58;;;14.80;86.90;;;;;;5083595;28;20048;-73
2021/10/06 08:00:49;;;;;;;2.30;1.10;;;14.80;86.90;;;;;;5087373;28;20032;-72
2021/10/06 08:03:18;;;;;;;3.78;1.65;;;14.80;86.80;;;;;;5087497;28;20383;-72
2021/10/06 08:05:47;;;;;;;6.53;1.60;;;14.80;86.70;;;;;;5077941;28;20028;-73
2021/10/06 08:08:13;;;;;;;2.67;1.70;;;14.80;87.00;;;;;;5091941;28;20062;-72
2021/10/06 08:10:40;;;;;;;2.38;1.40;;;14.80;86.60;;;;;;5080927;28;20040;-73
2021/10/06 08:13:05;;;;;;;4.38;1.90;;;14.80;86.50;;;;;;5088600;28;20024;-72
2021/10/06 08:15:32;;;;;;;3.55;1.70;;;14.80;86.70;;;;;;5082929;28;20085;-72
2021/10/06 08:17:58;;;;;;;1.40;1.30;;;14.80;86.60;;;;;;5085892;28;20039;-72
2021/10/06 08:20:25;;;;;;;4.35;1.40;;;14.80;86.60;;;;;;5079735;28;20032;-72
2021/10/06 08:22:50;;;;;;;1.30;1.20;;;14.90;86.70;;;;;;5087903;28;20024;-72
2021/10/06 08:25:16;;;;;;;7.72;1.73;;;14.90;86.80;;;;;;5074766;28;20085;-73
2021/10/06 08:27:42;;;;;;;4.78;1.27;;;14.80;86.90;;;;;;5073392;28;20042;-72
2021/10/06 08:30:08;;;;;;;4.88;1.55;;;14.90;86.90;;;;;;5087140;28;20040;-73
2021/10/06 08:32:33;;;;;;;2.30;1.27;;;15.00;86.90;;;;;;5087974;28;20123;-73
2021/10/06 08:34:59;;;;;;;2.25;1.35;;;15.00;86.90;;;;;;5080168;28;20111;-73
2021/10/06 08:37:25;;;;;;;1.38;1.10;;;15.00;86.90;;;;;;5089330;28;20028;-72
2021/10/06 08:39:51;;;;;;;4.15;1.17;;;15.10;86.60;;;;;;5083647;28;20036;-72
2021/10/06 08:42:20;;;;;;;0.85;0.70;;;15.10;86.50;;;;;;5092973;28;20634;-72
2021/10/06 08:44:50;;;;;;;2.03;1.20;;;15.10;86.00;;;;;;5085689;28;20487;-72
2021/10/06 08:47:16;;;;;;;1.77;1.25;;;15.10;86.30;;;;;;5093335;28;20035;-73
2021/10/06 08:49:44;;;;;;;2.30;1.63;;;15.20;86.60;;;;;;5080578;28;20119;-72
2021/10/06 08:52:09;;;;;;;9.07;1.35;;;15.20;86.80;;;;;;5087367;28;20036;-72
2021/10/06 08:54:35;;;;;;;1.90;1.25;;;15.20;86.20;;;;;;5088210;28;20069;-72
2021/10/06 08:57:01;;;;;;;1.73;1.05;;;15.20;86.50;;;;;;5076282;28;20373;-72
2021/10/06 08:59:26;;;;;;;4.03;1.30;;;15.20;86.50;;;;;;5089059;28;20024;-72
2021/10/06 09:01:52;;;;;;;2.13;1.30;;;15.30;86.70;;;;;;5089559;28;20031;-73
2021/10/06 09:04:30;;;;;;;4.18;1.30;;;15.30;86.80;;;;;;5082678;28;20040;-72
2021/10/06 09:07:01;;;;;;;2.58;1.50;;;15.30;86.90;;;;;;5084364;28;20070;-72
2021/10/06 09:09:32;;;;;;;1.63;1.20;;;15.40;86.80;;;;;;5093768;28;20051;-72
2021/10/06 09:11:59;;;;;;;2.17;1.35;;;15.40;86.70;;;;;;5090813;28;20480;-72
2021/10/06 09:14:25;;;;;;;4.03;1.40;;;15.50;86.60;;;;;;5089674;28;20028;-73
2021/10/06 09:17:12;;;;;;;1.90;1.48;;;15.50;86.30;;;;;;5087470;28;20063;-73
2021/10/06 09:19:53;;;;;;;3.58;1.67;;;15.40;86.40;;;;;;5084244;28;20418;-72
2021/10/06 09:22:32;;;;;;;1.83;1.70;;;15.50;86.60;;;;;;5088367;28;20383;-72
2021/10/06 09:25:05;;;;;;;3.03;1.48;;;15.50;86.80;;;;;;5083214;28;20123;-72
2021/10/06 09:27:34;;;;;;;1.80;1.15;;;15.50;86.40;;;;;;5094379;28;20055;-72
2021/10/06 09:30:05;;;;;;;2.25;1.30;;;15.50;86.20;;;;;;5077522;28;20040;-72
2021/10/06 09:32:39;;;;;;;1.30;1.20;;;15.50;86.40;;;;;;5094054;28;20020;-72
2021/10/06 09:35:13;;;;;;;2.00;1.23;;;15.50;86.30;;;;;;5083670;28;20032;-72
2021/10/06 09:37:52;;;;;;;3.58;1.80;;;15.50;86.30;;;;;;5082339;28;20479;-72
2021/10/06 09:40:21;;;;;;;4.60;1.75;;;15.60;86.70;;;;;;5080689;28;20044;-71
2021/10/06 09:42:50;;;;;;;1.70;1.40;;;15.60;86.90;;;;;;5090101;28;20040;-72
2021/10/06 09:45:36;;;;;;;3.80;2.13;;;15.60;87.00;;;;;;5080437;28;20032;-73
2021/10/06 09:48:10;;;;;;;3.20;1.77;;;15.60;87.10;;;;;;5079948;28;20466;-73
2021/10/06 09:50:38;;;;;;;5.60;1.92;;;15.60;87.80;;;;;;5074141;28;20528;-73
2021/10/06 09:53:25;;;;;;;2.28;1.50;;;15.70;87.30;;;;;;5076829;28;20032;-71
2021/10/06 09:55:52;;;;;;;4.35;2.17;;;15.60;87.30;;;;;;5076281;28;20037;-71
2021/10/06 09:58:19;;;;;;;3.47;1.80;;;15.70;87.40;;;;;;5084747;28;20041;-72
2021/10/06 10:00:47;;;;;;;9.75;3.13;;;15.70;87.30;;;;;;5090169;28;20029;-72
2021/10/06 10:03:13;;;;;;;3.08;1.67;;;15.80;87.50;;;;;;5077227;28;20036;-72
2021/10/06 10:05:40;;;;;;;3.13;1.70;;;15.80;87.50;;;;;;5075935;28;20541;-72
2021/10/06 10:08:07;;;;;;;4.50;2.20;;;15.80;87.60;;;;;;5075072;28;20404;-72
2021/10/06 10:10:34;;;;;;;4.57;1.88;;;15.80;87.60;;;;;;5077492;28;20145;-72
2021/10/06 10:13:00;;;;;;;5.15;2.47;;;15.80;87.90;;;;;;5076660;28;20170;-74
2021/10/06 10:15:27;;;;;;;4.85;1.85;;;15.80;88.00;;;;;;5079931;28;20029;-72
2021/10/06 10:17:55;;;;;;;4.18;1.80;;;15.90;88.10;;;;;;5090081;28;20486;-72
2021/10/06 10:20:21;;;;;;;2.00;1.40;;;15.90;88.20;;;;;;5086441;28;20024;-72
2021/10/06 10:22:56;;;;;;;3.13;1.70;;;15.90;88.00;;;;;;5086201;28;20024;-72
2021/10/06 10:25:27;;;;;;;4.97;1.40;;;16.00;87.70;;;;;;5075810;28;20040;-73
2021/10/06 10:28:12;;;;;;;5.35;2.10;;;16.00;87.40;;;;;;5081404;28;20117;-71
2021/10/06 10:30:56;;;;;;;4.75;1.67;;;16.10;87.40;;;;;;5085431;28;20052;-73
2021/10/06 10:33:38;;;;;;;;;;;16.10;86.90;;;;;;5080124;28;20028;-75
2021/10/06 10:36:04;;;;;;;2.72;1.70;;;16.10;86.70;;;;;;5081957;28;19912;-73
2021/10/06 10:38:36;;;;;;;2.08;1.40;;;16.20;86.60;;;;;;5078452;28;20648;-73
2021/10/06 10:41:02;;;;;;;3.10;1.40;;;16.20;86.50;;;;;;5086120;28;20049;-70
2021/10/06 10:43:31;;;;;;;2.88;1.30;;;16.20;86.50;;;;;;5076951;28;20083;-75
2021/10/06 10:46:07;;;;;;;3.60;1.80;;;16.20;86.40;;;;;;5076262;28;20032;-72
2021/10/06 10:48:56;;;;;;;7.43;2.03;;;16.20;86.50;;;;;;5091148;28;20024;-72
2021/10/06 10:51:41;;;;;;;4.13;1.20;;;16.30;86.70;;;;;;5074227;28;20060;-72
2021/10/06 10:54:10;;;;;;;0.90;0.70;;;16.30;86.20;;;;;;5081999;28;20024;-72
2021/10/06 10:56:44;;;;;;;9.27;1.60;;;16.30;86.10;;;;;;5080770;28;20111;-72
2021/10/06 10:59:15;;;;;;;3.65;1.85;;;16.30;86.00;;;;;;5091569;28;20494;-72
2021/10/06 11:01:46;;;;;;;3.47;1.58;;;16.30;86.10;;;;;;5082180;28;20032;-72
2021/10/06 11:04:16;;;;;;;2.08;1.20;;;16.30;85.90;;;;;;5082266;28;20077;-72
2021/10/06 11:06:54;;;;;;;2.95;1.45;;;16.40;85.80;;;;;;5090320;28;20030;-81
2021/10/06 11:09:29;;;;;;;5.03;1.58;;;16.40;85.90;;;;;;5080165;28;20056;-72
2021/10/06 11:11:55;;;;;;;4.43;1.90;;;16.40;85.90;;;;;;5082593;28;20032;-72
2021/10/06 11:14:21;;;;;;;3.35;1.70;;;16.40;85.90;;;;;;5091666;28;20032;-72
2021/10/06 11:17:06;;;;;;;4.22;1.85;;;16.40;85.90;;;;;;5090912;28;20068;-71
2021/10/06 11:19:46;;;;;;;2.22;1.40;;;16.50;86.00;;;;;;5079092;28;20029;-71
2021/10/06 11:22:24;;;;;;;2.88;1.42;;;16.50;85.80;;;;;;5084237;28;20040;-71
2021/10/06 11:24:57;;;;;;;4.10;1.52;;;16.60;85.70;;;;;;5086090;28;20043;-72
2021/10/06 11:27:23;;;;;;;3.33;1.98;;;16.60;85.60;;;;;;5073665;28;20035;-71
2021/10/06 11:29:54;;;;;;;4.85;1.73;;;16.60;85.70;;;;;;5085578;28;20127;-73
2021/10/06 11:32:20;;;;;;;2.88;1.80;;;16.60;85.80;;;;;;5078496;28;20090;-72
2021/10/06 11:34:54;;;;;;;4.90;1.80;;;16.60;86.10;;;;;;5091298;28;20038;-72
2021/10/06 11:37:26;;;;;;;2.67;1.75;;;16.70;86.00;;;;;;5088885;28;20079;-72
2021/10/06 11:39:53;;;;;;;3.10;1.80;;;16.80;85.80;;;;;;5082351;28;20086;-72
2021/10/06 11:42:20;;;;;;;4.35;1.67;;;16.80;85.60;;;;;;5082856;28;20415;-72
2021/10/06 11:44:46;;;;;;;6.32;1.95;;;16.80;85.40;;;;;;5079087;28;20435;-72
2021/10/06 11:47:15;;;;;;;4.20;1.98;;;16.80;85.40;;;;;;5074778;28;20025;-75
2021/10/06 11:49:44;;;;;;;5.72;1.80;;;16.80;85.20;;;;;;5077450;28;20112;-73
2021/10/06 11:52:12;;;;;;;3.20;2.00;;;16.90;85.30;;;;;;5074507;28;20077;-73
2021/10/06 11:54:38;;;;;;;3.55;1.83;;;16.90;85.40;;;;;;5076133;28;20024;-74
2021/10/06 11:57:09;;;;;;;3.13;1.98;;;17.00;85.50;;;;;;5075302;28;20593;-73
2021/10/06 11:59:36;;;;;;;4.47;1.80;;;17.00;85.70;;;;;;5078226;28;20031;-73
2021/10/06 12:02:07;;;;;;;4.07;1.73;;;17.00;85.80;;;;;;5071672;28;20033;-73
2021/10/06 12:04:34;;;;;;;3.65;1.70;;;17.00;85.50;;;;;;5075586;28;20055;-73
2021/10/06 12:07:02;;;;;;;2.38;1.67;;;17.00;85.20;;;;;;5075917;28;20036;-73
2021/10/06 12:09:34;;;;;;;4.15;2.05;;;17.10;85.10;;;;;;5073768;28;20399;-73
2021/10/06 12:12:01;;;;;;;5.88;1.65;;;17.10;85.10;;;;;;5073711;28;20025;-74
2021/10/06 12:14:33;;;;;;;5.93;2.00;;;17.10;84.90;;;;;;5071436;28;20033;-73
2021/10/06 12:17:04;;;;;;;3.53;1.80;;;17.10;85.00;;;;;;5074604;28;20016;-73
2021/10/06 12:19:30;;;;;;;2.65;1.40;;;17.10;85.20;;;;;;5071064;28;20078;-74
2021/10/06 12:21:56;;;;;;;5.85;1.80;;;17.20;85.00;;;;;;5075667;28;20036;-73
2021/10/06 12:24:25;;;;;;;8.38;1.98;;;17.20;85.20;;;;;;5074357;28;20422;-73
2021/10/06 12:26:52;;;;;;;3.67;2.00;;;17.30;85.00;;;;;;5073215;28;20024;-73
2021/10/06 12:29:24;;;;;;;4.55;1.80;;;17.30;85.00;;;;;;5076583;28;20043;-74
2021/10/06 12:31:55;;;;;;;6.03;2.05;;;17.30;85.60;;;;;;5072550;28;20109;-73
2021/10/06 12:34:23;;;;;;;1.50;1.20;;;17.40;84.50;;;;;;5076228;28;20047;-73
2021/10/06 12:36:58;;;;;;;3.50;1.98;;;17.50;84.30;;;;;;5080027;28;20166;-73
2021/10/06 12:39:26;;;;;;;6.45;2.90;;;17.50;84.10;;;;;;5074943;28;20177;-73
2021/10/06 12:41:55;;;;;;;4.82;1.70;;;17.60;84.40;;;;;;5077735;28;20388;-73
2021/10/06 12:44:26;;;;;;;8.27;1.98;;;17.60;84.10;;;;;;5072612;28;20045;-73
2021/10/06 12:46:55;;;;;;;3.80;1.75;;;17.70;83.70;;;;;;5072499;28;20484;-73
2021/10/06 12:49:21;;;;;;;6.53;2.28;;;17.70;83.60;;;;;;5072958;28;20032;-74